Time;durP1;ratioP1;P1;durP2;ratioP2;P2;SDS_P1;SDS_P2;PMS_P1;PMS_P2;Temp;Humidity;BMP_temperature;BMP_pressure;BME280_temperature;BME280_humidity;BME280_pressure;Samples;Min_cycle;Max_cycle;Signal;HPM_P1;HPM_P2
2022/03/21 00:01:58;;;;;;;440.47;123.47;;;;;;;-2.17;65.66;100806.38;6171302;23;20439;-63
2022/03/21 00:04:24;;;;;;;439.23;124.00;;;;;;;-2.17;65.19;100797.19;6174255;22;20020;-62
2022/03/21 00:06:50;;;;;;;441.37;124.87;;;;;;;-2.22;64.50;100770.00;6172280;23;20373;-62
2022/03/21 00:09:15;;;;;;;443.90;128.30;;;;;;;-2.15;64.35;100785.59;6169978;23;20015;-61
2022/03/21 00:11:41;;;;;;;440.07;121.77;;;;;;;-2.16;64.47;100783.84;6171599;23;20092;-63
2022/03/21 00:14:07;;;;;;;437.30;120.97;;;;;;;-2.31;65.32;100761.09;6177306;23;20305;-63
2022/03/21 00:16:33;;;;;;;442.17;129.98;;;;;;;-2.26;66.29;100779.00;6171134;22;20013;-63
2022/03/21 00:19:00;;;;;;;441.37;124.63;;;;;;;-2.27;66.32;100776.38;6172458;23;20047;-63
2022/03/21 00:21:26;;;;;;;438.10;120.53;;;;;;;-2.29;67.16;100773.75;6173815;23;20420;-62
2022/03/21 00:23:51;;;;;;;439.17;122.00;;;;;;;-2.29;67.77;100773.75;6174856;23;20009;-61
2022/03/21 00:26:16;;;;;;;437.43;121.17;;;;;;;-2.26;66.87;100768.94;6171555;23;20123;-63
2022/03/21 00:28:42;;;;;;;440.10;122.10;;;;;;;-2.36;65.95;100766.59;6172158;23;20009;-62
2022/03/21 00:31:07;;;;;;;438.17;121.20;;;;;;;-2.33;65.55;100771.81;6174012;23;20024;-63
2022/03/21 00:33:33;;;;;;;441.77;125.73;;;;;;;-2.29;66.57;100782.94;6174232;23;20423;-66
2022/03/21 00:35:58;;;;;;;440.83;124.70;;;;;;;-2.33;66.46;100782.72;6174642;23;20013;-63
2022/03/21 00:38:25;;;;;;;441.27;125.27;;;;;;;-2.48;66.95;100765.78;6172731;23;20124;-63
2022/03/21 00:40:50;;;;;;;438.20;119.40;;;;;;;-2.43;66.89;100782.91;6172773;23;20013;-63
2022/03/21 00:43:21;;;;;;;440.67;121.13;;;;;;;-2.48;67.32;100776.69;6175819;23;20017;-62
2022/03/21 00:45:47;;;;;;;441.08;123.18;;;;;;;-2.50;67.91;100778.22;6175052;22;20480;-64
2022/03/21 00:48:12;;;;;;;444.67;128.50;;;;;;;-2.53;68.05;100777.16;6169795;23;20013;-63
2022/03/21 00:50:38;;;;;;;442.57;122.97;;;;;;;-2.53;68.67;100775.50;6171329;23;20030;-64
2022/03/21 00:53:04;;;;;;;438.53;117.37;;;;;;;-2.66;69.00;100745.34;6176546;23;20021;-62
2022/03/21 00:55:29;;;;;;;442.13;125.63;;;;;;;-2.82;69.08;100725.88;6172454;23;20016;-63
2022/03/21 00:57:56;;;;;;;439.97;124.70;;;;;;;-2.64;69.72;100763.03;6169120;23;20009;-63
2022/03/21 01:00:25;;;;;;;439.88;122.07;;;;;;;-2.74;72.30;100743.94;6172576;23;20067;-63
2022/03/21 01:02:51;;;;;;;440.80;121.78;;;;;;;-2.68;72.90;100758.56;6174354;23;20031;-63
2022/03/21 01:05:17;;;;;;;439.17;122.85;;;;;;;-2.71;71.63;100751.69;6170926;23;20005;-63
2022/03/21 01:07:43;;;;;;;441.50;124.43;;;;;;;-2.74;71.64;100735.53;6171103;23;20009;-62
2022/03/21 01:10:12;;;;;;;439.65;123.07;;;;;;;-2.56;71.81;100761.88;6172227;23;20370;-63
2022/03/21 01:12:38;;;;;;;437.88;116.63;;;;;;;-2.63;71.07;100730.47;6172709;23;20322;-63
2022/03/21 01:15:05;;;;;;;436.67;120.50;;;;;;;-2.60;70.73;100737.34;6172374;23;20096;-62
2022/03/21 01:17:30;;;;;;;438.70;120.65;;;;;;;-2.51;70.21;100751.41;6170721;23;20016;-62
2022/03/21 01:19:55;;;;;;;439.13;121.83;;;;;;;-2.66;69.87;100721.88;6171711;23;20009;-63
2022/03/21 01:22:21;;;;;;;439.97;124.77;;;;;;;-2.47;70.69;100747.44;6171732;23;20012;-62
2022/03/21 01:24:46;;;;;;;437.97;124.33;;;;;;;-2.47;70.45;100733.25;6170606;23;20084;-62
2022/03/21 01:27:12;;;;;;;436.63;116.60;;;;;;;-2.42;68.75;100721.84;6171700;23;20328;-63
2022/03/21 01:29:38;;;;;;;438.77;122.83;;;;;;;-2.50;68.21;100712.94;6176025;23;20127;-63
2022/03/21 01:32:03;;;;;;;438.30;126.03;;;;;;;-2.53;68.56;100704.34;6170017;23;20067;-64
2022/03/21 01:34:29;;;;;;;437.60;121.70;;;;;;;-2.37;67.96;100724.66;6169951;23;20005;-62
2022/03/21 01:36:54;;;;;;;434.33;116.13;;;;;;;-2.56;67.36;100704.16;6173450;23;20028;-63
2022/03/21 01:39:20;;;;;;;439.27;121.43;;;;;;;-2.56;66.72;100715.06;6175868;23;20016;-63
2022/03/21 01:41:46;;;;;;;439.23;122.93;;;;;;;-2.65;66.08;100696.00;6169911;23;20086;-62
2022/03/21 01:44:12;;;;;;;439.37;121.30;;;;;;;-2.65;66.39;100693.50;6171574;23;20044;-62
2022/03/21 01:46:39;;;;;;;438.50;121.57;;;;;;;-2.62;66.98;100712.13;6173351;22;20080;-62
2022/03/21 01:49:06;;;;;;;437.20;119.75;;;;;;;-2.66;68.47;100699.28;6174754;23;20540;-63
2022/03/21 01:51:32;;;;;;;436.77;122.35;;;;;;;-2.62;68.82;100701.22;6174045;23;20024;-61
2022/03/21 01:56:45;;;;;;;438.95;123.25;;;;;;;-2.73;68.12;100700.53;6171835;23;21059;-63
2022/03/21 01:59:11;;;;;;;434.67;117.00;;;;;;;-2.71;68.63;100703.13;6176658;23;20009;-62
2022/03/21 02:01:37;;;;;;;435.15;121.15;;;;;;;-2.72;68.06;100708.94;6174008;23;20009;-63
2022/03/21 02:04:03;;;;;;;437.60;121.38;;;;;;;-2.73;67.37;100700.53;6168832;23;20013;-63
2022/03/21 02:06:29;;;;;;;434.57;116.80;;;;;;;-2.73;66.86;100703.03;6174529;23;20013;-63
2022/03/21 02:08:59;;;;;;;438.07;120.47;;;;;;;-2.82;67.94;100683.22;6175813;23;20009;-62
2022/03/21 02:11:26;;;;;;;435.70;119.80;;;;;;;-2.77;68.62;100699.47;6172740;23;20513;-63
2022/03/21 02:13:57;;;;;;;440.58;125.55;;;;;;;-2.85;69.14;100680.50;6170768;23;20013;-62
2022/03/21 02:16:24;;;;;;;438.88;116.65;;;;;;;-2.70;68.38;100698.22;6171710;23;20083;-61
2022/03/21 02:18:50;;;;;;;433.67;115.53;;;;;;;-2.82;68.53;100682.34;6177498;23;20014;-62
2022/03/21 02:21:36;;;;;;;441.50;126.43;;;;;;;-2.78;69.82;100700.22;6170465;23;20431;-62
2022/03/21 02:24:12;;;;;;;440.63;120.78;;;;;;;-2.88;69.94;100677.78;6171509;23;20013;-62
2022/03/21 02:26:38;;;;;;;442.50;125.55;;;;;;;-2.78;69.72;100700.22;6171031;23;20092;-61
2022/03/21 02:29:04;;;;;;;438.07;121.57;;;;;;;-2.96;72.01;100668.88;6174743;23;20044;-63
2022/03/21 02:31:34;;;;;;;437.20;120.30;;;;;;;-2.93;73.21;100678.25;6171700;23;20066;-62
2022/03/21 02:34:00;;;;;;;439.80;122.13;;;;;;;-2.91;74.10;100682.59;6170501;23;20392;-62
2022/03/21 02:36:27;;;;;;;436.98;119.55;;;;;;;-2.88;72.61;100687.81;6171655;23;20016;-64
2022/03/21 02:38:57;;;;;;;437.15;121.95;;;;;;;-2.91;71.90;100682.59;6172482;23;20117;-63
2022/03/21 02:41:23;;;;;;;438.67;120.72;;;;;;;-2.93;71.55;100689.13;6171769;23;20505;-62
2022/03/21 02:43:58;;;;;;;436.90;120.37;;;;;;;-3.01;73.49;100670.19;6170691;23;20041;-62
2022/03/21 02:46:25;;;;;;;433.13;116.90;;;;;;;-3.08;74.15;100667.19;6172190;22;20021;-63
2022/03/21 02:48:52;;;;;;;436.42;119.15;;;;;;;-3.02;75.24;100683.53;6171230;23;20056;-62
2022/03/21 02:51:22;;;;;;;435.73;118.03;;;;;;;-3.14;76.47;100669.28;6171759;23;20436;-62
2022/03/21 02:53:51;;;;;;;435.25;115.57;;;;;;;-3.10;77.18;100679.63;6174872;23;20013;-62
2022/03/21 02:56:22;;;;;;;433.10;116.63;;;;;;;-3.26;78.72;100659.28;6173309;23;20519;-62
2022/03/21 02:58:49;;;;;;;437.00;121.35;;;;;;;-3.17;78.48;100676.59;6170075;23;20092;-62
2022/03/21 03:01:17;;;;;;;438.20;123.65;;;;;;;-3.21;77.53;100685.53;6171229;23;20013;-61
2022/03/21 03:03:44;;;;;;;436.05;115.97;;;;;;;-3.22;76.90;100692.19;6176250;23;20767;-63
2022/03/21 03:06:10;;;;;;;435.25;117.72;;;;;;;-3.22;77.41;100693.81;6174582;23;20013;-62
2022/03/21 03:08:38;;;;;;;437.43;118.63;;;;;;;-3.20;77.65;100696.44;6171245;23;20443;-63
2022/03/21 03:11:03;;;;;;;437.08;122.00;;;;;;;-3.38;77.27;100674.38;6170599;23;20522;-62
2022/03/21 03:13:29;;;;;;;433.83;119.10;;;;;;;-3.22;76.72;100698.00;6169627;23;20009;-62
2022/03/21 03:15:55;;;;;;;436.43;115.50;;;;;;;-3.26;76.63;100691.88;6170166;23;20448;-64
2022/03/21 03:18:20;;;;;;;435.23;117.40;;;;;;;-3.28;75.94;100695.94;6167872;23;20481;-66
2022/03/21 03:20:54;;;;;;;435.83;114.20;;;;;;;-3.28;75.79;100698.44;6169862;23;20455;-65
2022/03/21 03:23:22;;;;;;;434.30;118.93;;;;;;;-3.44;77.18;100680.59;6170919;23;20009;-65
2022/03/21 03:25:51;;;;;;;436.67;120.47;;;;;;;-3.48;79.14;100663.63;6168708;23;20163;-65
2022/03/21 03:28:16;;;;;;;435.88;119.95;;;;;;;-3.26;78.41;100692.75;6169790;22;20079;-66
2022/03/21 03:30:42;;;;;;;438.43;120.53;;;;;;;-3.33;78.16;100689.72;6171882;23;20031;-66
2022/03/21 03:33:08;;;;;;;436.33;118.73;;;;;;;-3.39;78.80;100699.31;6170569;23;20040;-66
2022/03/21 03:35:35;;;;;;;436.25;121.25;;;;;;;-3.43;79.01;100692.34;6167689;23;20013;-66
2022/03/21 03:38:01;;;;;;;433.45;113.45;;;;;;;-3.44;80.59;100693.13;6170992;23;20013;-65
2022/03/21 03:40:26;;;;;;;435.40;118.57;;;;;;;-3.56;80.21;100672.22;6171737;23;20040;-60
2022/03/21 03:42:52;;;;;;;438.37;121.50;;;;;;;-3.44;79.71;100693.13;6167624;23;20025;-63
2022/03/21 03:45:17;;;;;;;432.23;115.67;;;;;;;-3.50;78.91;100663.50;6168098;23;20016;-69
2022/03/21 03:47:42;;;;;;;433.70;112.40;;;;;;;-3.47;78.03;100672.84;6168867;23;20333;-62
2022/03/21 03:50:08;;;;;;;434.53;118.13;;;;;;;-3.44;78.09;100689.00;6171024;23;20454;-61
2022/03/21 03:52:34;;;;;;;434.60;117.80;;;;;;;-3.50;78.34;100685.19;6168659;23;20009;-67
2022/03/21 03:54:59;;;;;;;438.83;122.03;;;;;;;-3.62;79.60;100674.31;6167549;23;20012;-71
2022/03/21 03:57:25;;;;;;;433.33;117.80;;;;;;;-3.57;80.18;100688.91;6167772;23;20695;-67
2022/03/21 03:59:50;;;;;;;433.23;117.17;;;;;;;-3.66;80.79;100685.75;6169705;23;20303;-66
2022/03/21 04:02:16;;;;;;;433.40;118.70;;;;;;;-3.65;81.77;100684.13;6167112;23;20017;-68
2022/03/21 04:04:42;;;;;;;436.67;122.37;;;;;;;-3.70;81.17;100689.69;6167171;23;20077;-67
2022/03/21 04:07:07;;;;;;;437.08;119.30;;;;;;;-3.92;82.60;100650.50;6165449;23;20009;-67
2022/03/21 04:09:33;;;;;;;433.53;120.90;;;;;;;-3.75;82.88;100691.00;6163173;23;20571;-67
2022/03/21 04:11:59;;;;;;;435.73;117.27;;;;;;;-3.77;83.24;100686.63;6166644;23;20846;-69
2022/03/21 04:14:25;;;;;;;432.63;113.93;;;;;;;-3.76;83.72;100683.38;6171353;23;20020;-66
2022/03/21 04:16:50;;;;;;;433.63;117.40;;;;;;;-3.72;82.75;100697.84;6166675;23;20408;-68
2022/03/21 04:19:16;;;;;;;433.60;117.83;;;;;;;-3.74;82.59;100694.38;6166917;23;20012;-68
2022/03/21 04:21:41;;;;;;;433.90;116.73;;;;;;;-3.90;81.57;100669.00;6170611;23;20001;-67
2022/03/21 04:24:07;;;;;;;434.13;121.00;;;;;;;-3.84;82.12;100702.88;6171726;23;20790;-66
2022/03/21 04:26:33;;;;;;;431.03;112.77;;;;;;;-3.85;82.93;100693.59;6176359;22;20044;-65
2022/03/21 04:28:59;;;;;;;431.33;114.60;;;;;;;-3.88;86.52;100690.03;6174229;23;20070;-63
2022/03/21 04:31:25;;;;;;;432.85;119.25;;;;;;;-3.91;87.04;100699.84;6170023;23;20013;-66
2022/03/21 04:33:50;;;;;;;429.37;115.17;;;;;;;-4.08;87.96;100667.72;6172545;23;20008;-61
2022/03/21 04:36:15;;;;;;;430.63;111.40;;;;;;;-3.99;88.38;100699.28;6174424;23;20005;-60
2022/03/21 04:38:41;;;;;;;429.60;114.53;;;;;;;-4.10;88.77;100671.72;6171635;23;20495;-61
2022/03/21 04:41:07;;;;;;;429.30;110.87;;;;;;;-4.03;88.78;100688.94;6171330;23;20016;-61
2022/03/21 04:43:33;;;;;;;430.20;111.43;;;;;;;-3.99;89.70;100693.41;6167617;23;20348;-61
2022/03/21 04:45:59;;;;;;;429.20;113.47;;;;;;;-4.11;88.45;100675.84;6172033;23;20017;-60
2022/03/21 04:48:24;;;;;;;428.60;110.97;;;;;;;-4.08;88.39;100686.13;6170304;23;20070;-61
2022/03/21 04:50:51;;;;;;;428.13;106.30;;;;;;;-4.07;90.16;100697.84;6173457;23;20024;-60
2022/03/21 04:53:17;;;;;;;430.98;111.80;;;;;;;-4.03;89.66;100697.31;6173085;23;20005;-61
2022/03/21 04:55:43;;;;;;;429.70;113.07;;;;;;;-4.32;89.80;100656.78;6171221;23;20025;-62
2022/03/21 04:58:09;;;;;;;430.13;114.43;;;;;;;-4.08;89.42;100705.28;6169472;22;20013;-60
2022/03/21 05:00:37;;;;;;;428.40;108.95;;;;;;;-4.22;90.17;100680.13;6173437;23;20025;-61
2022/03/21 05:03:07;;;;;;;430.52;109.72;;;;;;;-4.19;90.32;100686.97;6174904;23;20005;-61
2022/03/21 05:05:35;;;;;;;428.52;111.18;;;;;;;-4.16;89.49;100687.19;6171507;23;20573;-60
2022/03/21 05:08:02;;;;;;;429.58;111.63;;;;;;;-4.02;88.89;100691.53;6169455;23;20009;-61
2022/03/21 05:10:28;;;;;;;427.23;107.63;;;;;;;-3.97;89.98;100699.38;6173219;23;20013;-60
2022/03/21 05:12:54;;;;;;;428.77;109.15;;;;;;;-3.95;90.13;100698.75;6175431;23;20012;-62
2022/03/21 05:15:20;;;;;;;430.37;112.13;;;;;;;-3.89;88.98;100701.66;6172490;23;20618;-60
2022/03/21 05:17:45;;;;;;;429.80;114.00;;;;;;;-3.86;87.69;100693.53;6169767;23;20464;-60
2022/03/21 05:20:18;;;;;;;428.70;109.03;;;;;;;-3.81;87.65;100697.19;6175110;23;20104;-59
2022/03/21 05:30:57;;;;;;;431.98;113.18;;;;;;;-3.68;86.83;100687.28;6175354;23;20013;-59
2022/03/21 05:31:02;;;;;;;323.15;82.68;;;;;;;-3.25;82.99;100703.66;6175468;23;20020;-61
2022/03/21 05:36:12;;;;;;;435.48;117.07;;;;;;;-3.17;80.23;100676.59;6170578;23;20028;-61
2022/03/21 05:38:37;;;;;;;437.53;116.13;;;;;;;-2.87;78.26;100712.16;6169372;23;20009;-60
2022/03/21 05:41:03;;;;;;;432.63;113.27;;;;;;;-2.74;76.84;100710.44;6173904;23;20497;-61
2022/03/21 05:43:32;;;;;;;434.50;120.53;;;;;;;-2.59;77.79;100711.47;6172808;23;20021;-64
2022/03/21 05:46:01;;;;;;;438.15;118.50;;;;;;;-2.40;76.40;100711.91;6170913;22;20545;-61
2022/03/21 05:51:15;;;;;;;440.25;116.47;;;;;;;-2.21;74.65;100697.28;6175944;23;20024;-62
2022/03/21 05:53:42;;;;;;;441.05;122.22;;;;;;;-2.13;74.05;100703.66;6172657;23;20009;-62
2022/03/21 05:56:07;;;;;;;442.38;122.53;;;;;;;-2.00;71.96;100700.28;6171254;22;20012;-62
2022/03/21 05:58:33;;;;;;;440.53;123.00;;;;;;;-1.77;70.40;100725.22;6173614;23;20017;-59
2022/03/21 06:00:59;;;;;;;441.63;122.33;;;;;;;-1.64;69.73;100725.22;6177077;23;20048;-62
2022/03/21 06:03:24;;;;;;;441.73;128.33;;;;;;;-1.50;68.33;100726.09;6173004;23;20108;-60
2022/03/21 06:05:50;;;;;;;443.97;128.27;;;;;;;-1.36;66.66;100721.91;6169763;23;20009;-62
2022/03/21 06:08:16;;;;;;;441.77;123.45;;;;;;;-1.28;66.19;100708.16;6176497;23;20012;-63
2022/03/21 06:10:42;;;;;;;445.53;129.17;;;;;;;-1.06;65.27;100729.66;6175088;23;20065;-63
2022/03/21 06:13:08;;;;;;;445.67;134.52;;;;;;;-0.86;66.12;100733.41;6172938;23;20016;-62
2022/03/21 07:30:43;;;;;;;475.48;208.93;;;;;;;4.15;48.40;100759.69;6300658;22;20042;-62
2022/03/21 07:36:31;;;;;;;477.58;230.90;;;;;;;4.52;46.65;100745.09;6294036;22;20501;-63
2022/03/21 07:51:46;;;;;;;485.10;259.37;;;;;;;5.41;43.11;100727.25;6298073;22;20275;-63
2022/03/21 09:25:56;;;;;;;521.53;430.73;;;;;;;8.85;31.97;100681.75;6298271;22;20233;-64
2022/03/21 09:28:21;;;;;;;520.27;437.90;;;;;;;8.95;32.78;100702.47;6293860;22;20246;-63
2022/03/21 09:31:15;;;;;;;520.97;444.83;;;;;;;9.15;32.01;100702.84;6303073;22;20010;-63
2022/03/21 09:34:39;;;;;;;523.77;456.33;;;;;;;9.20;32.51;100708.94;6298823;22;20011;-63
2022/03/21 09:41:04;;;;;;;520.93;454.13;;;;;;;9.20;31.51;100693.56;6302504;22;20263;-63
2022/03/21 09:43:39;;;;;;;521.97;454.70;;;;;;;9.45;31.94;100705.16;6298560;22;20226;-63
2022/03/21 09:48:08;;;;;;;526.73;467.73;;;;;;;9.50;30.91;100708.66;6296823;22;20305;-63
2022/03/21 11:27:50;;;;;;;601.00;541.03;;;;;;;10.93;29.69;100624.56;6296850;22;20584;-62
2022/03/21 11:41:10;;;;;;;621.27;560.87;;;;;;;11.11;29.31;100618.78;6296529;22;20241;-62
2022/03/21 11:54:30;;;;;;;624.00;563.40;;;;;;;11.37;29.91;100601.94;6303844;22;20232;-62
2022/03/21 12:01:13;;;;;;;637.73;577.03;;;;;;;11.69;28.65;100597.91;6298185;22;20236;-61
2022/03/21 12:07:55;;;;;;;656.87;595.23;;;;;;;11.40;29.82;100589.97;6295152;22;20132;-61
2022/03/21 12:14:27;;;;;;;641.37;580.60;;;;;;;11.40;28.41;100589.97;6301477;22;20283;-62
2022/03/21 12:17:42;;;;;;;650.53;589.43;;;;;;;11.58;27.85;100580.72;6295318;22;20007;-61
2022/03/21 12:20:23;;;;;;;654.97;593.93;;;;;;;11.56;28.14;100566.97;6299755;22;20023;-61
2022/03/21 12:23:38;;;;;;;646.33;585.33;;;;;;;11.21;27.71;100572.66;6300704;22;20007;-61
2022/03/21 12:29:46;;;;;;;652.63;591.77;;;;;;;11.46;27.76;100566.03;6297176;22;20026;-62
2022/03/21 12:33:07;;;;;;;651.03;590.10;;;;;;;11.30;27.52;100561.63;6300720;22;20361;-62
2022/03/21 12:35:45;;;;;;;639.70;578.93;;;;;;;11.46;27.52;100561.75;6298221;22;20011;-65
2022/03/21 12:41:57;;;;;;;639.33;578.63;;;;;;;11.41;27.47;100560.84;6298583;22;20276;-63
2022/03/21 12:54:58;;;;;;;640.77;579.93;;;;;;;11.45;26.94;100557.50;6298312;22;20280;-61
2022/03/21 12:58:05;;;;;;;638.67;578.00;;;;;;;11.50;26.26;100557.50;6172186;23;20746;-61
2022/03/21 13:00:37;;;;;;;649.63;588.83;;;;;;;11.48;26.61;100553.22;6175110;23;20095;-62
2022/03/21 13:03:41;;;;;;;656.77;595.60;;;;;;;11.53;26.36;100554.97;6171803;23;20271;-61
2022/03/21 13:12:33;;;;;;;658.90;597.83;;;;;;;11.75;26.35;100556.88;6171984;23;20070;-60
2022/03/21 13:15:50;;;;;;;663.63;602.65;;;;;;;11.75;27.03;100551.72;6171226;23;20013;-61
2022/03/21 13:21:48;;;;;;;653.13;592.23;;;;;;;11.61;27.29;100548.19;6173096;23;20079;-60
2022/03/21 13:24:45;;;;;;;655.83;594.60;;;;;;;11.64;26.17;100550.78;6171554;23;20051;-60
2022/03/21 13:27:13;;;;;;;656.90;595.90;;;;;;;11.60;26.42;100546.47;6163506;23;20326;-60
2022/03/21 13:56:19;;;;;;;643.57;582.87;;;;;;;11.68;26.22;100524.25;6266612;22;20717;-62
2022/03/21 13:58:45;;;;;;;643.80;582.70;;;;;;;11.77;26.30;100524.34;6268239;22;21115;-62
2022/03/21 14:01:34;;;;;;;647.80;587.03;;;;;;;11.58;27.07;100526.75;6263349;22;20257;-61
2022/03/21 14:04:41;;;;;;;651.00;590.17;;;;;;;11.73;25.44;100521.75;6267921;22;20339;-61
2022/03/21 14:07:08;;;;;;;650.85;590.17;;;;;;;11.49;25.83;100511.28;6269994;22;20218;-61
2022/03/21 14:12:55;;;;;;;641.00;580.57;;;;;;;11.50;26.18;100501.00;6266266;22;20257;-61
2022/03/21 14:22:47;;;;;;;637.87;577.40;;;;;;;11.65;26.56;100506.25;6265034;22;20269;-61
2022/03/21 14:28:43;;;;;;;671.10;609.93;;;;;;;11.48;26.17;100500.13;6266166;22;20019;-61
2022/03/21 14:53:03;;;;;;;637.80;577.37;;;;;;;11.25;25.94;100479.41;6266719;22;20225;-62
2022/03/21 14:55:30;;;;;;;666.50;605.13;;;;;;;11.39;25.72;100494.94;6269130;22;20703;-61
2022/03/21 15:01:54;;;;;;;659.67;598.57;;;;;;;11.24;25.59;100476.84;6263124;22;20262;-61
2022/03/21 15:04:31;;;;;;;647.97;587.00;;;;;;;11.14;26.05;100467.34;6269806;22;20068;-62
2022/03/21 15:10:21;;;;;;;651.73;590.63;;;;;;;11.16;25.75;100461.38;6263489;22;20242;-60
2022/03/21 15:29:36;;;;;;;631.30;570.83;;;;;;;10.89;25.34;100458.56;6268478;22;20261;-62
2022/03/21 15:41:39;;;;;;;635.53;575.13;;;;;;;11.02;25.78;100469.81;6264685;22;20475;-61
2022/03/21 15:45:09;;;;;;;625.37;564.70;;;;;;;10.94;24.99;100469.75;6257492;22;20897;-61
2022/03/21 15:50:56;;;;;;;622.40;562.27;;;;;;;11.15;24.82;100466.50;6262364;22;20027;-62
2022/03/21 15:56:43;;;;;;;639.47;578.80;;;;;;;12.03;24.99;100454.25;6257248;22;20094;-62
2022/03/21 16:00:05;;;;;;;654.47;593.50;;;;;;;12.97;23.52;100480.22;6282330;22;20019;-62
2022/03/21 16:02:37;;;;;;;688.47;626.43;;;;;;;13.16;23.19;100477.69;6294358;22;20077;-61
2022/03/21 16:09:11;;;;;;;694.00;632.00;;;;;;;12.83;22.90;100483.63;6296800;22;20383;-61
2022/03/21 16:11:49;;;;;;;728.67;665.90;;;;;;;12.47;23.89;100477.56;6294285;22;20007;-61
2022/03/21 16:17:38;;;;;;;708.20;645.90;;;;;;;11.15;24.71;100482.78;6267115;22;20038;-60
2022/03/21 16:23:25;;;;;;;683.43;621.87;;;;;;;10.37;26.46;100476.00;6263339;22;20138;-60
2022/03/21 16:29:19;;;;;;;645.03;584.27;;;;;;;9.71;27.02;100488.78;6269479;22;20124;-60
2022/03/21 16:35:07;;;;;;;606.13;546.10;;;;;;;9.17;27.91;100481.97;6266209;22;20022;-60
2022/03/21 16:40:57;;;;;;;583.23;523.63;;;;;;;8.89;28.32;100500.25;6264303;22;20461;-60
2022/03/21 16:46:44;;;;;;;569.43;510.03;;;;;;;8.34;29.05;100467.69;6269718;22;20354;-60
2022/03/21 16:53:06;;;;;;;556.10;497.03;;;;;;;8.37;29.14;100502.66;6263634;22;20081;-60
2022/03/21 17:06:16;;;;;;;522.03;439.07;;;;;;;7.50;29.96;100485.44;6238234;23;20566;-63
2022/03/21 17:08:42;;;;;;;526.13;440.47;;;;;;;7.32;29.88;100469.69;6230686;23;20243;-64
2022/03/21 17:14:30;;;;;;;520.90;425.53;;;;;;;7.02;30.28;100489.38;6237868;23;20273;-63
2022/03/21 17:36:38;;;;;;;512.97;373.43;;;;;;;5.81;31.88;100525.03;6239705;23;20225;-63
2022/03/21 17:42:28;;;;;;;509.53;357.23;;;;;;;5.55;32.53;100525.91;6237653;23;20026;-63
2022/03/21 17:45:04;;;;;;;506.17;351.73;;;;;;;5.44;32.42;100525.53;6239859;23;20614;-64
2022/03/21 17:47:30;;;;;;;506.07;345.40;;;;;;;5.26;32.28;100513.09;6233649;23;20222;-65
2022/03/21 17:49:57;;;;;;;504.87;343.13;;;;;;;5.22;32.70;100529.06;6233273;23;20219;-65
2022/03/21 17:52:23;;;;;;;503.70;342.43;;;;;;;5.05;33.21;100514.94;6238753;23;20247;-66
2022/03/21 17:54:48;;;;;;;499.77;327.77;;;;;;;5.06;33.21;100537.00;6240427;23;20223;-65
2022/03/21 17:57:14;;;;;;;503.03;332.17;;;;;;;4.84;33.02;100520.16;6234040;23;20066;-64
2022/03/21 17:59:40;;;;;;;498.30;324.27;;;;;;;4.80;33.54;100535.25;6236661;23;20016;-65
2022/03/21 18:02:06;;;;;;;501.00;330.43;;;;;;;4.78;33.50;100547.06;6239170;22;20702;-64
2022/03/21 18:04:32;;;;;;;501.37;328.43;;;;;;;4.67;33.83;100559.38;6240919;23;20023;-64
2022/03/21 18:06:58;;;;;;;507.17;331.63;;;;;;;4.44;34.63;100527.22;6234744;23;20015;-65
2022/03/21 18:09:24;;;;;;;500.00;317.63;;;;;;;4.49;34.98;100540.97;6235618;23;20263;-65
2022/03/21 18:11:50;;;;;;;505.63;314.43;;;;;;;4.80;34.71;100563.19;6237884;23;20234;-65
2022/03/21 18:14:16;;;;;;;504.00;311.57;;;;;;;4.70;34.75;100561.16;6233387;23;20238;-66
2022/03/21 18:16:42;;;;;;;512.97;316.13;;;;;;;4.61;34.97;100566.78;6230585;23;20665;-66
2022/03/21 18:21:51;;;;;;;512.03;303.33;;;;;;;4.45;35.33;100556.91;6236076;23;20278;-65
2022/03/21 18:24:17;;;;;;;519.00;310.37;;;;;;;4.35;35.51;100555.69;6234978;23;20227;-65
2022/03/21 18:26:43;;;;;;;512.20;305.33;;;;;;;4.29;35.55;100565.59;6231153;23;20246;-66
2022/03/21 18:29:09;;;;;;;506.43;295.60;;;;;;;4.14;35.40;100567.59;6235617;23;20012;-66
2022/03/21 18:31:35;;;;;;;507.83;293.03;;;;;;;3.98;36.61;100565.28;6238914;23;20365;-66
2022/03/21 18:34:00;;;;;;;503.40;289.63;;;;;;;3.76;36.19;100550.03;6233936;23;20387;-65
2022/03/21 18:36:26;;;;;;;503.23;291.80;;;;;;;3.69;36.34;100552.31;6230428;23;20083;-66
2022/03/21 18:38:52;;;;;;;496.87;280.23;;;;;;;3.70;37.17;100568.41;6238015;23;20001;-65
2022/03/21 18:41:18;;;;;;;492.73;269.93;;;;;;;3.54;37.97;100545.78;6238985;23;20258;-66
2022/03/21 18:43:43;;;;;;;498.00;265.90;;;;;;;3.47;38.03;100549.75;6236053;23;20016;-66
2022/03/21 18:46:09;;;;;;;493.37;260.47;;;;;;;3.31;37.80;100557.53;6231771;23;20510;-66
2022/03/21 18:48:34;;;;;;;489.43;254.67;;;;;;;3.28;39.02;100570.09;6236622;23;20043;-66
2022/03/21 18:51:00;;;;;;;487.77;247.13;;;;;;;3.15;39.02;100580.50;6235743;23;20366;-66
2022/03/21 18:53:25;;;;;;;483.47;246.43;;;;;;;3.03;39.80;100578.34;6236514;23;20312;-66
2022/03/21 18:55:53;;;;;;;488.87;250.63;;;;;;;2.90;39.81;100577.75;6231806;23;20015;-66
2022/03/21 18:58:18;;;;;;;481.40;230.68;;;;;;;2.78;40.23;100567.97;6213020;23;20019;-65
2022/03/21 19:00:43;;;;;;;481.20;233.33;;;;;;;2.79;40.74;100587.44;6237043;22;20024;-66
2022/03/21 19:03:11;;;;;;;480.57;230.27;;;;;;;2.72;40.59;100585.41;6234541;23;20008;-65
2022/03/21 19:05:37;;;;;;;477.15;231.85;;;;;;;2.50;40.53;100568.44;6233920;23;20008;-66
2022/03/21 19:08:03;;;;;;;477.13;217.73;;;;;;;2.54;41.03;100585.50;6240078;23;20445;-67
2022/03/21 19:10:29;;;;;;;477.93;218.53;;;;;;;2.46;40.44;100594.38;6239171;23;20058;-65
2022/03/21 19:12:55;;;;;;;475.23;222.47;;;;;;;2.38;41.01;100595.72;6233602;23;20279;-66
2022/03/21 19:15:21;;;;;;;476.80;214.75;;;;;;;2.30;41.83;100599.56;6236957;23;20031;-66
2022/03/21 19:17:48;;;;;;;477.00;219.07;;;;;;;2.25;42.08;100596.81;6239008;23;20021;-66
2022/03/21 19:20:22;;;;;;;481.30;225.02;;;;;;;2.19;42.60;100596.56;6233435;23;20016;-65
2022/03/21 19:22:48;;;;;;;477.83;217.52;;;;;;;2.00;42.72;100578.78;6230448;23;20022;-62
2022/03/21 19:25:14;;;;;;;473.43;209.67;;;;;;;2.07;43.14;100602.72;6231759;23;20079;-65
2022/03/21 19:27:39;;;;;;;473.60;203.07;;;;;;;2.03;42.94;100598.31;6235408;23;20008;-66
2022/03/21 19:30:07;;;;;;;476.40;211.20;;;;;;;1.99;43.41;100604.03;6236074;23;20017;-65
2022/03/21 19:32:33;;;;;;;478.58;216.00;;;;;;;1.91;43.61;100605.34;6231086;23;20008;-64
2022/03/21 19:34:58;;;;;;;475.67;204.67;;;;;;;1.84;43.91;100587.34;6233444;23;20004;-64
2022/03/21 19:37:25;;;;;;;475.00;208.23;;;;;;;2.00;43.83;100595.63;6236342;23;20736;-63
2022/03/21 19:39:51;;;;;;;478.48;205.77;;;;;;;1.95;43.70;100597.09;6232418;23;20328;-63
2022/03/21 19:45:00;;;;;;;473.85;198.52;;;;;;;1.76;43.98;100590.28;6234522;23;20020;-63
2022/03/21 19:47:26;;;;;;;474.80;195.60;;;;;;;1.77;44.51;100590.38;6235204;23;20596;-62
2022/03/21 19:49:51;;;;;;;474.63;207.53;;;;;;;1.79;44.72;100614.06;6231718;23;20039;-62
2022/03/21 19:52:17;;;;;;;473.23;198.83;;;;;;;1.72;44.97;100606.13;6229749;23;20015;-63
2022/03/21 19:54:42;;;;;;;471.30;190.47;;;;;;;1.48;44.99;100590.66;6235469;23;20004;-62
2022/03/21 19:57:07;;;;;;;463.83;181.27;;;;;;;1.47;44.93;100601.56;6235125;23;20012;-64
2022/03/21 19:59:33;;;;;;;470.23;192.87;;;;;;;1.31;44.92;100596.53;6206332;23;20022;-60
2022/03/21 20:01:58;;;;;;;469.87;185.67;;;;;;;1.30;45.72;100609.97;6230639;22;20099;-63